Udall, Missouri
Current Conditions -  °F | °C
As of 6:53 AM on Thursday 23 Oct 2014 (Local Time) from KBPK Reporting Station
Clear Clear  
Wind Chill: 46°   Ceiling: Unl
Heat Index: 46°   Visibility: 9mi
Dew Point: 44°   Wind: 3mph
Humidity: 93%   Direction: 90°E
Pressure: 30.18"   Gusts: NA
Location:  36.54°N, 92.26°W
Report Text: KBPK 231153Z AUTO 09003KT 9SM CLR 08/07 A3018 RMK AO2 SLP219 T00780067 10100 20067 56002
Loading
Personal Weather Stations






























Interactive Weather Map
Tropical Storm Tracking
New forecast layout! Learn more

10-Day Weather Forecast

Advertisements
Track Severe Weather on mobile